createdAt,value
2023-01-07T00:03:20.664Z,999.8
2023-01-07T00:08:20.787Z,999.6
2023-01-07T00:13:20.672Z,999.6
2023-01-07T00:23:20.688Z,999.5
2023-01-07T00:28:20.816Z,999.5
2023-01-07T00:43:20.710Z,999.1
2023-01-07T00:48:20.837Z,999.0
2023-01-07T00:53:20.728Z,998.9
2023-01-07T00:58:20.798Z,998.7
2023-01-07T01:03:20.753Z,998.6
2023-01-07T01:08:20.879Z,998.4
2023-01-07T01:13:20.705Z,998.3
2023-01-07T01:18:20.914Z,998.2
2023-01-07T01:23:20.765Z,998.1
2023-01-07T01:38:20.900Z,997.9
2023-01-07T01:43:20.793Z,997.9
2023-01-07T01:48:20.931Z,997.8
2023-01-07T01:53:20.810Z,997.7
2023-01-07T01:58:20.953Z,997.6
2023-01-07T02:03:20.808Z,997.5
2023-01-07T02:08:20.946Z,997.3
2023-01-07T02:18:20.955Z,997.0
2023-01-07T02:23:20.856Z,997.0
2023-01-07T02:28:20.970Z,996.8
2023-01-07T02:33:20.904Z,996.9
2023-01-07T02:38:21.014Z,996.9
2023-01-07T02:43:20.910Z,996.7
2023-01-07T02:48:21.013Z,996.7
2023-01-07T02:53:20.898Z,996.5
2023-01-07T02:58:21.037Z,996.4
2023-01-07T03:03:20.919Z,996.5
2023-01-07T03:08:21.047Z,996.2
2023-01-07T03:13:20.943Z,996.2
2023-01-07T03:18:21.006Z,996.1
2023-01-07T03:23:20.933Z,996.1
2023-01-07T03:28:21.033Z,996.0
2023-01-07T03:33:20.972Z,996.1
2023-01-07T03:38:21.036Z,995.8
2023-01-07T03:43:20.981Z,995.8
2023-01-07T03:48:21.095Z,995.7
2023-01-07T03:53:20.968Z,995.8
2023-01-07T03:58:21.115Z,995.8
2023-01-07T04:03:20.972Z,995.8
2023-01-07T04:08:21.122Z,995.6
2023-01-07T04:13:21.058Z,995.4
2023-01-07T04:18:21.125Z,995.4
2023-01-07T04:23:21.015Z,995.4
2023-01-07T04:28:21.158Z,995.4
2023-01-07T04:33:21.037Z,995.4
2023-01-07T04:38:21.336Z,995.3
2023-01-07T04:43:21.155Z,995.2
2023-01-07T04:53:21.043Z,995.0
2023-01-07T04:58:21.256Z,995.0
2023-01-07T05:03:21.072Z,995.0
2023-01-07T05:08:21.335Z,994.8
2023-01-07T05:13:21.196Z,994.6
2023-01-07T05:18:21.369Z,994.6
2023-01-07T05:28:21.244Z,994.5
2023-01-07T05:33:21.238Z,994.4
2023-01-07T05:38:21.265Z,994.3
2023-01-07T05:43:21.135Z,994.2
2023-01-07T05:48:21.367Z,994.0
2023-01-07T05:53:21.150Z,994.1
2023-01-07T05:58:21.282Z,994.1
2023-01-07T06:03:21.266Z,993.9
2023-01-07T06:08:21.279Z,993.9
2023-01-07T06:13:21.164Z,993.8
2023-01-07T06:18:21.293Z,993.7
2023-01-07T06:23:21.161Z,993.7
2023-01-07T06:28:21.307Z,993.6
2023-01-07T06:33:21.210Z,993.4
2023-01-07T06:38:21.331Z,993.2
2023-01-07T06:43:21.210Z,993.2
2023-01-07T06:48:21.313Z,993.1
2023-01-07T06:58:21.367Z,993.0
2023-01-07T07:03:21.223Z,992.9
2023-01-07T07:08:21.290Z,992.8
2023-01-07T07:13:21.282Z,992.8
2023-01-07T07:18:21.355Z,992.7
2023-01-07T07:28:21.362Z,992.5
2023-01-07T07:33:21.272Z,992.5
2023-01-07T07:38:21.396Z,992.4
2023-01-07T07:43:21.321Z,992.1
2023-01-07T07:48:21.437Z,992.2
2023-01-07T07:53:21.321Z,992.2
2023-01-07T07:58:21.460Z,992.1
2023-01-07T08:03:21.427Z,992.0
2023-01-07T08:08:21.537Z,991.9
2023-01-07T08:13:21.343Z,992.0
2023-01-07T08:23:21.344Z,991.9
2023-01-07T08:28:21.421Z,991.8
2023-01-07T08:33:21.343Z,991.8
2023-01-07T08:38:21.410Z,991.7
2023-01-07T08:43:21.351Z,991.8
2023-01-07T08:48:21.475Z,991.7
2023-01-07T08:53:21.313Z,991.5
2023-01-07T08:58:21.491Z,991.6
2023-01-07T09:03:21.375Z,991.3
2023-01-07T09:08:21.513Z,991.4
2023-01-07T09:13:21.393Z,991.4
2023-01-07T09:18:21.517Z,991.3
2023-01-07T09:23:21.417Z,991.3
2023-01-07T09:28:21.532Z,991.1
2023-01-07T09:33:21.425Z,991.2
2023-01-07T09:43:21.428Z,991.0
2023-01-07T09:48:21.524Z,991.0
2023-01-07T09:53:21.476Z,990.9
2023-01-07T09:58:21.588Z,990.8
2023-01-07T10:03:21.463Z,990.6
2023-01-07T10:08:28.979Z,990.6
2023-01-07T10:13:21.439Z,990.6
2023-01-07T10:18:21.615Z,990.7
2023-01-07T10:23:21.467Z,990.6
2023-01-07T10:28:21.604Z,990.6
2023-01-07T10:33:21.478Z,990.4
2023-01-07T10:38:21.570Z,990.4
2023-01-07T10:43:21.498Z,990.3
2023-01-07T10:48:21.636Z,990.1
2023-01-07T10:58:21.613Z,990.1
2023-01-07T11:03:21.577Z,990.0
2023-01-07T11:08:21.670Z,989.9
2023-01-07T11:13:21.542Z,989.9
2023-01-07T11:18:21.684Z,989.8
2023-01-07T11:23:21.582Z,989.9
2023-01-07T11:28:21.715Z,989.9
2023-01-07T11:33:21.591Z,989.7
2023-01-07T11:38:21.701Z,989.6
2023-01-07T11:43:21.589Z,989.5
2023-01-07T11:48:21.676Z,989.5
2023-01-07T11:53:21.624Z,989.5
2023-01-07T11:58:29.825Z,989.3
2023-01-07T12:03:21.675Z,989.2
2023-01-07T12:08:21.779Z,989.1
2023-01-07T12:13:21.627Z,988.8
2023-01-07T12:18:21.723Z,988.9
2023-01-07T12:23:21.676Z,988.7
2023-01-07T12:28:21.792Z,988.6
2023-01-07T12:33:21.682Z,988.6
2023-01-07T12:38:21.780Z,988.6
2023-01-07T12:43:21.689Z,988.4
2023-01-07T12:48:21.810Z,988.3
2023-01-07T12:53:21.707Z,988.2
2023-01-07T12:58:21.848Z,988.1
2023-01-07T13:03:21.707Z,988.1
2023-01-07T13:08:21.840Z,988.2
2023-01-07T13:13:21.749Z,988.2
2023-01-07T13:18:21.859Z,988.2
2023-01-07T13:23:21.743Z,988.2
2023-01-07T13:28:21.880Z,988.3
2023-01-07T13:33:21.767Z,988.1
2023-01-07T13:38:21.828Z,988.2
2023-01-07T13:43:21.766Z,988.2
2023-01-07T13:48:21.884Z,988.1
2023-01-07T13:53:21.801Z,988.0
2023-01-07T13:58:21.952Z,987.9
2023-01-07T14:03:21.864Z,987.8
2023-01-07T14:08:21.827Z,987.8
2023-01-07T14:13:21.823Z,987.7
2023-01-07T14:18:21.882Z,987.7
2023-01-07T14:23:21.807Z,987.6
2023-01-07T14:28:21.848Z,987.6
2023-01-07T14:33:21.855Z,987.6
2023-01-07T14:38:21.967Z,987.5
2023-01-07T14:43:21.878Z,987.5
2023-01-07T14:48:21.972Z,987.6
2023-01-07T14:53:21.867Z,987.4
2023-01-07T14:58:22.047Z,987.4
2023-01-07T15:03:22.007Z,987.4
2023-01-07T15:08:21.901Z,987.4
2023-01-07T15:13:21.890Z,987.6
2023-01-07T15:18:22.004Z,987.3
2023-01-07T15:23:21.911Z,987.4
2023-01-07T15:28:22.017Z,987.3
2023-01-07T15:33:21.902Z,987.2
2023-01-07T15:38:22.026Z,987.3
2023-01-07T15:43:21.922Z,987.3
2023-01-07T15:48:22.042Z,987.3
2023-01-07T15:53:21.962Z,987.3
2023-01-07T15:58:22.245Z,987.2
2023-01-07T16:03:21.983Z,987.0
2023-01-07T16:08:22.071Z,987.0
2023-01-07T16:13:21.964Z,987.1
2023-01-07T16:18:22.102Z,987.1
2023-01-07T16:23:22.005Z,987.2
2023-01-07T16:28:22.113Z,987.1
2023-01-07T16:33:22.002Z,987.0
2023-01-07T16:38:22.136Z,987.0
2023-01-07T16:43:22.023Z,987.1
2023-01-07T16:48:22.146Z,987.1
2023-01-07T16:53:22.019Z,987.0
2023-01-07T16:58:22.149Z,986.9
2023-01-07T17:03:22.075Z,986.9
2023-01-07T17:08:22.081Z,986.9
2023-01-07T17:13:22.016Z,986.8
2023-01-07T17:18:22.161Z,986.7
2023-01-07T17:23:22.053Z,986.7
2023-01-07T17:28:24.013Z,986.7
2023-01-07T17:33:22.111Z,986.7
2023-01-07T17:38:22.216Z,986.6
2023-01-07T17:43:22.111Z,986.5
2023-01-07T17:48:22.171Z,986.4
2023-01-07T17:53:22.123Z,986.4
2023-01-07T17:58:22.231Z,986.2
2023-01-07T18:03:22.127Z,986.1
2023-01-07T18:13:22.104Z,986.2
2023-01-07T18:18:22.283Z,986.2
2023-01-07T18:23:22.199Z,986.3
2023-01-07T18:28:22.240Z,986.6
2023-01-07T18:33:22.181Z,986.3
2023-01-07T18:38:22.300Z,986.3
2023-01-07T18:43:22.202Z,986.2
2023-01-07T18:48:22.305Z,986.2
2023-01-07T18:53:22.196Z,986.3
2023-01-07T18:58:22.350Z,986.2
2023-01-07T19:03:22.264Z,986.1
2023-01-07T19:08:22.343Z,986.0
2023-01-07T19:13:22.251Z,986.1
2023-01-07T19:18:22.267Z,986.2
2023-01-07T19:23:22.263Z,986.3
2023-01-07T19:28:22.375Z,986.3
2023-01-07T19:33:22.283Z,986.4
2023-01-07T19:38:22.390Z,986.5
2023-01-07T19:43:22.413Z,986.6
2023-01-07T19:48:22.417Z,986.4
2023-01-07T19:53:22.446Z,986.5
2023-01-07T19:58:22.618Z,986.7
2023-01-07T20:03:22.365Z,986.8
2023-01-07T20:08:22.401Z,986.8
2023-01-07T20:13:22.333Z,986.9
2023-01-07T20:18:22.406Z,986.9
2023-01-07T20:23:22.389Z,986.9
2023-01-07T20:28:22.507Z,986.9
2023-01-07T20:33:22.404Z,986.8
2023-01-07T20:38:22.503Z,986.8
2023-01-07T20:43:22.408Z,986.9
2023-01-07T20:48:22.492Z,987.0
2023-01-07T20:53:22.395Z,987.0
2023-01-07T20:58:22.498Z,987.1
2023-01-07T21:03:22.375Z,987.1
2023-01-07T21:08:22.475Z,987.1
2023-01-07T21:13:22.425Z,987.2
2023-01-07T21:18:22.454Z,987.2
2023-01-07T21:23:22.442Z,987.2
2023-01-07T21:28:22.516Z,987.3
2023-01-07T21:33:22.461Z,987.3
2023-01-07T21:38:22.572Z,987.3
2023-01-07T21:43:22.452Z,987.4
2023-01-07T21:48:22.566Z,987.4
2023-01-07T21:53:22.479Z,987.4
2023-01-07T21:58:22.619Z,987.3
2023-01-07T22:03:22.511Z,987.2
2023-01-07T22:08:22.629Z,987.2
2023-01-07T22:13:22.543Z,987.3
2023-01-07T22:18:22.675Z,987.3
2023-01-07T22:23:22.575Z,987.3
2023-01-07T22:28:22.633Z,987.3
2023-01-07T22:33:22.687Z,987.3
2023-01-07T22:38:22.644Z,987.4
2023-01-07T22:43:22.581Z,987.4
2023-01-07T22:48:22.642Z,987.4
2023-01-07T22:53:22.584Z,987.5
2023-01-07T22:58:22.677Z,987.5
2023-01-07T23:03:22.639Z,987.5
2023-01-07T23:08:22.674Z,987.4
2023-01-07T23:13:22.623Z,987.4
2023-01-07T23:18:22.733Z,987.5
2023-01-07T23:23:22.616Z,987.5
2023-01-07T23:28:22.740Z,987.6
2023-01-07T23:33:22.683Z,987.6
2023-01-07T23:38:22.708Z,987.6
2023-01-07T23:43:22.661Z,987.5
2023-01-07T23:48:22.773Z,987.3
2023-01-07T23:53:22.668Z,987.2
2023-01-07T23:58:22.823Z,987.2
